Accueil
METAR-TAF:

METAR-TAF

Aéroports :

Aéroport de Huesca-Pyrénées

Huesca, Espagne

latitude: 42-04-32N, longitude: 0-18-58W, altitude: 539 m

Observation

Le bulletin a été fait il y a 26 minutes, à 08:30 UTC
Vent 6 kt de ouest, variant entre sud-ouest et nord-ouest
Température 7°C
Humidité 53%
Pression 1017 hPa
Visibilité 10 km ou plus
pas de nuages en-dessous de 1500 mètres et pas de cumulonimbus.

METAR: LEHC 170830Z 27006KT 230V310 CAVOK 07/M02 Q1017

Heure: 10:56 (08:56 UTC)

Prévision

Le bulletin a été fait il y a 56 minutes, à 08:00 UTC
Prévision valable du 17 à 09 UTC au 18 à 09 UTC
Vent 5 kt de ouest
Visibilité 10 km ou plus
pas de nuages en-dessous de 1500 mètres et pas de cumulonimbus.
Temporairement
du 17 à 17 UTC au 17 à 20 UTC
Vent 10 kt de est/nord-est

TAF: LEHC 170800Z 1709/1809 27005KT CAVOK TX16/1714Z TN00/1806Z TEMPO 1717/1720 06010KT

Observations et prévisions météorologiques de plus de 4000 aéroports (messages METAR et TAF).

Les stations disponibles sont représentées par des disques jaunes et rouges sur la carte.

Passer la souris dessus pour voir le nom de la station.

Cliquer dessus pour voir les observations et prévisions météorologiques.

Pour changer de carte: cliquez sur les boutons verts avec une croix noire pour zoomer, sur le bouton vert avec un tiret pour effectuer un zoom arrière, ou sur les flèches vertes pour les cartes adjacentes.


METAR-TAF: